sensor_id;sensor_type;location;lat;lon;timestamp;P1;durP1;ratioP1;P2;durP2;ratioP2
938;SDS011;456;53.584;9.968;2022-09-13T00:00:37;5.17;;;4.70;;
938;SDS011;456;53.584;9.968;2022-09-13T00:03:03;5.37;;;4.87;;
938;SDS011;456;53.584;9.968;2022-09-13T00:05:29;5.50;;;5.00;;
938;SDS011;456;53.584;9.968;2022-09-13T00:07:55;5.17;;;4.77;;
938;SDS011;456;53.584;9.968;2022-09-13T00:10:23;4.40;;;4.10;;
938;SDS011;456;53.584;9.968;2022-09-13T00:12:49;5.67;;;5.17;;
938;SDS011;456;53.584;9.968;2022-09-13T00:15:14;5.03;;;4.30;;
938;SDS011;456;53.584;9.968;2022-09-13T00:17:40;5.10;;;4.60;;
938;SDS011;456;53.584;9.968;2022-09-13T00:20:07;5.30;;;4.83;;
938;SDS011;456;53.584;9.968;2022-09-13T00:22:33;4.80;;;4.40;;
938;SDS011;456;53.584;9.968;2022-09-13T00:24:59;5.03;;;4.43;;
938;SDS011;456;53.584;9.968;2022-09-13T00:27:25;5.47;;;5.07;;
938;SDS011;456;53.584;9.968;2022-09-13T00:29:51;5.23;;;4.73;;
938;SDS011;456;53.584;9.968;2022-09-13T00:32:16;5.10;;;4.70;;
938;SDS011;456;53.584;9.968;2022-09-13T00:34:42;4.70;;;4.40;;
938;SDS011;456;53.584;9.968;2022-09-13T00:37:08;4.93;;;4.53;;
938;SDS011;456;53.584;9.968;2022-09-13T00:39:33;5.17;;;4.77;;
938;SDS011;456;53.584;9.968;2022-09-13T00:41:59;4.63;;;4.20;;
938;SDS011;456;53.584;9.968;2022-09-13T00:47:26;4.43;;;4.10;;
938;SDS011;456;53.584;9.968;2022-09-13T00:52:48;4.53;;;4.23;;
938;SDS011;456;53.584;9.968;2022-09-13T00:55:31;5.20;;;4.80;;
938;SDS011;456;53.584;9.968;2022-09-13T00:58:27;4.77;;;4.37;;
938;SDS011;456;53.584;9.968;2022-09-13T01:01:07;5.20;;;4.70;;
938;SDS011;456;53.584;9.968;2022-09-13T01:03:35;5.20;;;4.73;;
938;SDS011;456;53.584;9.968;2022-09-13T01:06:21;4.63;;;4.23;;
938;SDS011;456;53.584;9.968;2022-09-13T01:08:53;5.37;;;4.97;;
938;SDS011;456;53.584;9.968;2022-09-13T01:11:41;5.03;;;4.63;;
938;SDS011;456;53.584;9.968;2022-09-13T01:14:24;5.00;;;4.70;;
938;SDS011;456;53.584;9.968;2022-09-13T01:16:51;4.60;;;4.20;;
938;SDS011;456;53.584;9.968;2022-09-13T01:19:17;5.40;;;4.90;;
938;SDS011;456;53.584;9.968;2022-09-13T01:27:24;5.70;;;4.60;;
938;SDS011;456;53.584;9.968;2022-09-13T01:35:23;4.73;;;4.17;;
938;SDS011;456;53.584;9.968;2022-09-13T01:44:18;4.70;;;4.30;;
938;SDS011;456;53.584;9.968;2022-09-13T01:46:49;4.87;;;4.47;;
938;SDS011;456;53.584;9.968;2022-09-13T01:51:59;5.77;;;5.27;;
938;SDS011;456;53.584;9.968;2022-09-13T01:57:06;5.43;;;5.03;;
938;SDS011;456;53.584;9.968;2022-09-13T02:02:32;5.00;;;4.53;;
938;SDS011;456;53.584;9.968;2022-09-13T02:05:20;5.40;;;4.90;;
938;SDS011;456;53.584;9.968;2022-09-13T02:08:01;4.93;;;4.43;;
938;SDS011;456;53.584;9.968;2022-09-13T02:10:43;5.90;;;5.40;;
938;SDS011;456;53.584;9.968;2022-09-13T02:13:14;5.07;;;4.67;;
938;SDS011;456;53.584;9.968;2022-09-13T02:15:46;5.40;;;4.97;;
938;SDS011;456;53.584;9.968;2022-09-13T02:18:20;4.50;;;4.20;;
938;SDS011;456;53.584;9.968;2022-09-13T02:20:54;5.63;;;5.13;;
938;SDS011;456;53.584;9.968;2022-09-13T02:23:25;5.90;;;5.40;;
938;SDS011;456;53.584;9.968;2022-09-13T02:25:58;5.07;;;4.67;;
938;SDS011;456;53.584;9.968;2022-09-13T02:28:31;5.20;;;4.70;;
938;SDS011;456;53.584;9.968;2022-09-13T02:31:05;4.93;;;4.53;;
938;SDS011;456;53.584;9.968;2022-09-13T02:33:43;5.07;;;4.67;;
938;SDS011;456;53.584;9.968;2022-09-13T02:36:25;5.63;;;5.00;;
938;SDS011;456;53.584;9.968;2022-09-13T02:39:11;5.93;;;5.43;;
938;SDS011;456;53.584;9.968;2022-09-13T02:44:34;5.83;;;5.33;;
938;SDS011;456;53.584;9.968;2022-09-13T02:47:31;6.20;;;5.70;;
938;SDS011;456;53.584;9.968;2022-09-13T02:53:23;6.70;;;5.97;;
938;SDS011;456;53.584;9.968;2022-09-13T03:02:15;5.47;;;5.03;;
938;SDS011;456;53.584;9.968;2022-09-13T03:04:36;6.10;;;5.50;;
938;SDS011;456;53.584;9.968;2022-09-13T03:07:02;6.03;;;5.50;;
938;SDS011;456;53.584;9.968;2022-09-13T03:09:30;5.80;;;5.27;;
938;SDS011;456;53.584;9.968;2022-09-13T03:14:39;5.47;;;4.97;;
938;SDS011;456;53.584;9.968;2022-09-13T03:17:26;6.53;;;5.93;;
938;SDS011;456;53.584;9.968;2022-09-13T03:20:23;6.40;;;5.80;;
938;SDS011;456;53.584;9.968;2022-09-13T03:23:08;6.37;;;5.80;;
938;SDS011;456;53.584;9.968;2022-09-13T03:31:10;5.93;;;5.33;;
938;SDS011;456;53.584;9.968;2022-09-13T03:33:45;6.70;;;6.03;;
938;SDS011;456;53.584;9.968;2022-09-13T03:36:19;5.60;;;5.10;;
938;SDS011;456;53.584;9.968;2022-09-13T03:39:35;6.33;;;5.83;;
938;SDS011;456;53.584;9.968;2022-09-13T03:41:43;6.40;;;5.73;;
938;SDS011;456;53.584;9.968;2022-09-13T03:44:15;6.20;;;5.47;;
938;SDS011;456;53.584;9.968;2022-09-13T03:46:46;6.53;;;5.80;;
938;SDS011;456;53.584;9.968;2022-09-13T03:49:16;6.00;;;5.47;;
938;SDS011;456;53.584;9.968;2022-09-13T03:51:45;6.37;;;5.77;;
938;SDS011;456;53.584;9.968;2022-09-13T03:54:15;6.57;;;5.97;;
938;SDS011;456;53.584;9.968;2022-09-13T03:59:34;7.03;;;6.40;;
938;SDS011;456;53.584;9.968;2022-09-13T04:02:02;6.47;;;5.87;;
938;SDS011;456;53.584;9.968;2022-09-13T04:04:28;6.43;;;5.83;;
938;SDS011;456;53.584;9.968;2022-09-13T04:06:54;7.03;;;6.43;;
938;SDS011;456;53.584;9.968;2022-09-13T04:09:21;6.50;;;5.90;;
938;SDS011;456;53.584;9.968;2022-09-13T04:11:47;6.13;;;5.53;;
938;SDS011;456;53.584;9.968;2022-09-13T04:14:12;6.27;;;5.77;;
938;SDS011;456;53.584;9.968;2022-09-13T04:16:40;6.43;;;5.70;;
938;SDS011;456;53.584;9.968;2022-09-13T04:19:05;7.20;;;6.60;;
938;SDS011;456;53.584;9.968;2022-09-13T04:21:31;6.50;;;5.93;;
938;SDS011;456;53.584;9.968;2022-09-13T04:23:57;7.10;;;6.40;;
938;SDS011;456;53.584;9.968;2022-09-13T04:26:22;7.80;;;7.00;;
938;SDS011;456;53.584;9.968;2022-09-13T04:28:48;6.40;;;5.90;;
938;SDS011;456;53.584;9.968;2022-09-13T04:31:13;7.30;;;6.60;;
938;SDS011;456;53.584;9.968;2022-09-13T04:33:39;6.50;;;5.93;;
938;SDS011;456;53.584;9.968;2022-09-13T04:36:05;6.50;;;5.80;;
938;SDS011;456;53.584;9.968;2022-09-13T04:38:31;7.07;;;6.37;;
938;SDS011;456;53.584;9.968;2022-09-13T04:40:56;6.17;;;5.67;;
938;SDS011;456;53.584;9.968;2022-09-13T04:43:22;6.30;;;5.80;;
938;SDS011;456;53.584;9.968;2022-09-13T04:45:49;6.03;;;5.43;;
938;SDS011;456;53.584;9.968;2022-09-13T04:48:16;7.20;;;6.07;;
938;SDS011;456;53.584;9.968;2022-09-13T04:50:41;6.57;;;6.00;;
938;SDS011;456;53.584;9.968;2022-09-13T04:53:07;7.17;;;6.57;;
938;SDS011;456;53.584;9.968;2022-09-13T04:55:33;7.10;;;6.47;;
938;SDS011;456;53.584;9.968;2022-09-13T04:58:00;7.23;;;6.50;;
938;SDS011;456;53.584;9.968;2022-09-13T05:00:26;8.00;;;6.83;;
938;SDS011;456;53.584;9.968;2022-09-13T05:02:55;7.03;;;6.33;;
938;SDS011;456;53.584;9.968;2022-09-13T05:05:21;6.80;;;6.20;;
938;SDS011;456;53.584;9.968;2022-09-13T05:07:50;6.77;;;6.17;;
938;SDS011;456;53.584;9.968;2022-09-13T05:10:17;7.00;;;6.30;;
938;SDS011;456;53.584;9.968;2022-09-13T05:12:42;7.60;;;6.90;;
938;SDS011;456;53.584;9.968;2022-09-13T05:15:08;8.17;;;7.43;;
938;SDS011;456;53.584;9.968;2022-09-13T05:17:34;7.13;;;6.43;;
938;SDS011;456;53.584;9.968;2022-09-13T05:20:00;7.20;;;6.50;;
938;SDS011;456;53.584;9.968;2022-09-13T05:22:26;7.60;;;6.90;;
938;SDS011;456;53.584;9.968;2022-09-13T05:24:51;7.93;;;7.20;;
938;SDS011;456;53.584;9.968;2022-09-13T05:27:17;7.53;;;6.80;;
938;SDS011;456;53.584;9.968;2022-09-13T05:29:42;6.47;;;5.90;;
938;SDS011;456;53.584;9.968;2022-09-13T05:32:08;8.40;;;7.20;;
938;SDS011;456;53.584;9.968;2022-09-13T05:34:33;6.93;;;6.20;;
938;SDS011;456;53.584;9.968;2022-09-13T05:36:59;6.80;;;6.10;;
938;SDS011;456;53.584;9.968;2022-09-13T05:39:25;7.70;;;7.00;;
938;SDS011;456;53.584;9.968;2022-09-13T05:41:50;6.83;;;6.33;;
938;SDS011;456;53.584;9.968;2022-09-13T05:44:16;6.50;;;5.90;;
938;SDS011;456;53.584;9.968;2022-09-13T05:46:41;7.63;;;6.93;;
938;SDS011;456;53.584;9.968;2022-09-13T05:49:11;7.50;;;6.80;;
938;SDS011;456;53.584;9.968;2022-09-13T05:51:37;7.57;;;6.80;;
938;SDS011;456;53.584;9.968;2022-09-13T05:54:03;8.53;;;7.63;;
938;SDS011;456;53.584;9.968;2022-09-13T05:56:29;8.13;;;7.33;;
938;SDS011;456;53.584;9.968;2022-09-13T05:58:56;9.00;;;8.10;;
938;SDS011;456;53.584;9.968;2022-09-13T06:01:26;8.00;;;6.87;;
938;SDS011;456;53.584;9.968;2022-09-13T06:03:53;9.47;;;8.50;;
938;SDS011;456;53.584;9.968;2022-09-13T06:06:22;8.60;;;7.80;;
938;SDS011;456;53.584;9.968;2022-09-13T06:08:53;9.07;;;8.17;;
938;SDS011;456;53.584;9.968;2022-09-13T06:11:20;8.70;;;7.90;;
938;SDS011;456;53.584;9.968;2022-09-13T06:13:46;8.93;;;8.00;;
938;SDS011;456;53.584;9.968;2022-09-13T06:16:13;7.70;;;6.90;;
938;SDS011;456;53.584;9.968;2022-09-13T06:18:40;7.63;;;6.87;;
938;SDS011;456;53.584;9.968;2022-09-13T06:21:08;8.13;;;7.40;;
938;SDS011;456;53.584;9.968;2022-09-13T06:23:45;7.93;;;7.13;;
938;SDS011;456;53.584;9.968;2022-09-13T06:26:12;9.00;;;8.20;;
938;SDS011;456;53.584;9.968;2022-09-13T06:28:40;8.60;;;7.80;;
938;SDS011;456;53.584;9.968;2022-09-13T06:31:10;8.63;;;7.83;;
938;SDS011;456;53.584;9.968;2022-09-13T06:33:38;9.03;;;8.13;;
938;SDS011;456;53.584;9.968;2022-09-13T06:36:06;9.37;;;8.40;;
938;SDS011;456;53.584;9.968;2022-09-13T06:38:38;11.40;;;9.63;;
938;SDS011;456;53.584;9.968;2022-09-13T06:41:08;8.43;;;7.63;;
938;SDS011;456;53.584;9.968;2022-09-13T06:43:39;10.30;;;9.20;;
938;SDS011;456;53.584;9.968;2022-09-13T06:46:06;9.20;;;8.30;;
938;SDS011;456;53.584;9.968;2022-09-13T06:48:35;9.77;;;8.77;;
938;SDS011;456;53.584;9.968;2022-09-13T06:51:03;8.87;;;7.97;;
938;SDS011;456;53.584;9.968;2022-09-13T06:53:30;10.03;;;9.03;;
938;SDS011;456;53.584;9.968;2022-09-13T06:56:09;9.17;;;8.27;;
938;SDS011;456;53.584;9.968;2022-09-13T06:58:37;10.40;;;9.30;;
938;SDS011;456;53.584;9.968;2022-09-13T07:01:04;10.30;;;9.30;;
938;SDS011;456;53.584;9.968;2022-09-13T07:03:38;10.07;;;9.10;;
938;SDS011;456;53.584;9.968;2022-09-13T07:06:10;10.23;;;9.13;;
938;SDS011;456;53.584;9.968;2022-09-13T07:08:40;10.63;;;9.53;;
938;SDS011;456;53.584;9.968;2022-09-13T07:11:08;10.07;;;9.07;;
938;SDS011;456;53.584;9.968;2022-09-13T07:13:35;10.63;;;9.63;;
938;SDS011;456;53.584;9.968;2022-09-13T07:16:03;9.80;;;8.80;;
938;SDS011;456;53.584;9.968;2022-09-13T07:18:33;10.83;;;9.40;;
938;SDS011;456;53.584;9.968;2022-09-13T07:21:00;8.83;;;8.03;;
938;SDS011;456;53.584;9.968;2022-09-13T07:23:28;9.67;;;8.73;;
938;SDS011;456;53.584;9.968;2022-09-13T07:25:55;13.33;;;11.93;;
938;SDS011;456;53.584;9.968;2022-09-13T07:28:26;11.40;;;10.30;;
938;SDS011;456;53.584;9.968;2022-09-13T07:30:53;11.67;;;10.53;;
938;SDS011;456;53.584;9.968;2022-09-13T07:33:19;12.50;;;10.17;;
938;SDS011;456;53.584;9.968;2022-09-13T07:35:45;11.03;;;9.80;;
938;SDS011;456;53.584;9.968;2022-09-13T07:38:10;11.40;;;10.30;;
938;SDS011;456;53.584;9.968;2022-09-13T07:40:36;10.93;;;9.83;;
938;SDS011;456;53.584;9.968;2022-09-13T07:43:01;10.90;;;9.80;;
938;SDS011;456;53.584;9.968;2022-09-13T07:45:27;12.57;;;11.27;;
938;SDS011;456;53.584;9.968;2022-09-13T07:47:53;10.93;;;9.77;;
938;SDS011;456;53.584;9.968;2022-09-13T07:50:19;10.50;;;9.40;;
938;SDS011;456;53.584;9.968;2022-09-13T07:52:45;11.00;;;9.90;;
938;SDS011;456;53.584;9.968;2022-09-13T07:55:11;12.23;;;10.93;;
938;SDS011;456;53.584;9.968;2022-09-13T07:57:36;11.90;;;10.60;;
938;SDS011;456;53.584;9.968;2022-09-13T08:00:02;10.97;;;9.47;;
938;SDS011;456;53.584;9.968;2022-09-13T08:02:29;13.17;;;11.13;;
938;SDS011;456;53.584;9.968;2022-09-13T08:04:55;10.63;;;9.53;;
938;SDS011;456;53.584;9.968;2022-09-13T08:07:20;11.53;;;10.30;;
938;SDS011;456;53.584;9.968;2022-09-13T08:09:46;10.50;;;9.10;;
938;SDS011;456;53.584;9.968;2022-09-13T08:12:11;13.53;;;10.93;;
938;SDS011;456;53.584;9.968;2022-09-13T08:14:37;10.77;;;9.60;;
938;SDS011;456;53.584;9.968;2022-09-13T08:17:02;12.50;;;10.50;;
938;SDS011;456;53.584;9.968;2022-09-13T08:19:28;11.53;;;10.33;;
938;SDS011;456;53.584;9.968;2022-09-13T08:21:54;10.50;;;9.40;;
938;SDS011;456;53.584;9.968;2022-09-13T08:24:20;10.73;;;9.63;;
938;SDS011;456;53.584;9.968;2022-09-13T08:26:46;10.27;;;9.23;;
938;SDS011;456;53.584;9.968;2022-09-13T08:29:12;10.67;;;9.67;;
938;SDS011;456;53.584;9.968;2022-09-13T08:31:39;10.70;;;9.70;;
938;SDS011;456;53.584;9.968;2022-09-13T08:34:06;11.53;;;10.37;;
938;SDS011;456;53.584;9.968;2022-09-13T08:36:35;12.57;;;11.27;;
938;SDS011;456;53.584;9.968;2022-09-13T08:39:01;10.00;;;9.10;;
938;SDS011;456;53.584;9.968;2022-09-13T08:46:47;11.63;;;10.40;;
938;SDS011;456;53.584;9.968;2022-09-13T08:51:40;10.23;;;9.23;;
938;SDS011;456;53.584;9.968;2022-09-13T08:54:11;8.67;;;7.77;;
938;SDS011;456;53.584;9.968;2022-09-13T09:05:05;9.10;;;8.30;;
938;SDS011;456;53.584;9.968;2022-09-13T09:07:41;9.30;;;8.40;;
938;SDS011;456;53.584;9.968;2022-09-13T09:10:15;8.20;;;7.40;;
938;SDS011;456;53.584;9.968;2022-09-13T09:12:53;8.40;;;7.07;;
938;SDS011;456;53.584;9.968;2022-09-13T09:15:22;8.03;;;7.33;;
938;SDS011;456;53.584;9.968;2022-09-13T09:17:54;7.93;;;7.23;;
938;SDS011;456;53.584;9.968;2022-09-13T09:22:50;7.30;;;6.60;;
938;SDS011;456;53.584;9.968;2022-09-13T09:25:19;6.77;;;5.70;;
938;SDS011;456;53.584;9.968;2022-09-13T09:27:48;7.20;;;6.33;;
938;SDS011;456;53.584;9.968;2022-09-13T09:30:14;6.53;;;5.70;;
938;SDS011;456;53.584;9.968;2022-09-13T09:35:42;6.27;;;5.67;;
938;SDS011;456;53.584;9.968;2022-09-13T09:38:36;7.10;;;5.67;;
938;SDS011;456;53.584;9.968;2022-09-13T09:41:05;6.63;;;6.00;;
938;SDS011;456;53.584;9.968;2022-09-13T09:46:32;6.13;;;5.63;;
938;SDS011;456;53.584;9.968;2022-09-13T09:49:23;6.17;;;5.57;;
938;SDS011;456;53.584;9.968;2022-09-13T09:52:13;5.60;;;5.10;;
938;SDS011;456;53.584;9.968;2022-09-13T09:54:43;5.57;;;5.07;;
938;SDS011;456;53.584;9.968;2022-09-13T09:57:10;5.00;;;4.60;;
938;SDS011;456;53.584;9.968;2022-09-13T09:59:37;5.10;;;4.43;;
938;SDS011;456;53.584;9.968;2022-09-13T10:02:13;4.70;;;4.30;;
938;SDS011;456;53.584;9.968;2022-09-13T10:04:52;4.97;;;4.20;;
938;SDS011;456;53.584;9.968;2022-09-13T10:07:23;4.80;;;3.93;;
938;SDS011;456;53.584;9.968;2022-09-13T10:10:37;4.73;;;4.23;;
938;SDS011;456;53.584;9.968;2022-09-13T10:12:49;5.33;;;4.37;;
938;SDS011;456;53.584;9.968;2022-09-13T10:15:18;4.37;;;3.97;;
938;SDS011;456;53.584;9.968;2022-09-13T10:20:27;4.93;;;3.67;;
938;SDS011;456;53.584;9.968;2022-09-13T10:28:23;3.40;;;3.20;;
938;SDS011;456;53.584;9.968;2022-09-13T10:30:55;3.63;;;3.33;;
938;SDS011;456;53.584;9.968;2022-09-13T10:33:28;3.80;;;3.50;;
938;SDS011;456;53.584;9.968;2022-09-13T10:35:55;4.23;;;2.90;;
938;SDS011;456;53.584;9.968;2022-09-13T10:38:25;3.87;;;3.57;;
938;SDS011;456;53.584;9.968;2022-09-13T10:40:55;3.33;;;3.03;;
938;SDS011;456;53.584;9.968;2022-09-13T10:43:23;3.40;;;3.10;;
938;SDS011;456;53.584;9.968;2022-09-13T10:45:51;3.37;;;3.07;;
938;SDS011;456;53.584;9.968;2022-09-13T10:48:17;3.33;;;3.03;;
938;SDS011;456;53.584;9.968;2022-09-13T11:04:55;3.20;;;2.73;;
938;SDS011;456;53.584;9.968;2022-09-13T11:10:13;2.90;;;2.67;;
938;SDS011;456;53.584;9.968;2022-09-13T11:12:56;3.37;;;2.43;;
938;SDS011;456;53.584;9.968;2022-09-13T11:18:58;3.30;;;2.40;;
938;SDS011;456;53.584;9.968;2022-09-13T11:21:54;3.67;;;2.10;;
938;SDS011;456;53.584;9.968;2022-09-13T11:27:47;2.93;;;2.20;;
938;SDS011;456;53.584;9.968;2022-09-13T11:30:23;2.20;;;2.00;;
938;SDS011;456;53.584;9.968;2022-09-13T11:50:08;2.40;;;2.03;;
938;SDS011;456;53.584;9.968;2022-09-13T11:55:25;3.07;;;1.93;;
938;SDS011;456;53.584;9.968;2022-09-13T11:57:56;2.10;;;1.90;;
938;SDS011;456;53.584;9.968;2022-09-13T12:00:26;2.00;;;1.80;;
938;SDS011;456;53.584;9.968;2022-09-13T12:06:01;3.10;;;1.90;;
938;SDS011;456;53.584;9.968;2022-09-13T12:08:34;1.97;;;1.87;;
938;SDS011;456;53.584;9.968;2022-09-13T12:13:30;3.03;;;2.00;;
938;SDS011;456;53.584;9.968;2022-09-13T12:16:04;3.07;;;1.83;;
938;SDS011;456;53.584;9.968;2022-09-13T12:18:35;2.30;;;1.80;;
938;SDS011;456;53.584;9.968;2022-09-13T12:21:08;2.13;;;1.50;;
938;SDS011;456;53.584;9.968;2022-09-13T12:23:49;3.10;;;2.03;;
938;SDS011;456;53.584;9.968;2022-09-13T12:32:04;2.17;;;1.97;;
938;SDS011;456;53.584;9.968;2022-09-13T12:37:38;2.93;;;1.83;;
938;SDS011;456;53.584;9.968;2022-09-13T12:46:14;1.70;;;1.60;;
938;SDS011;456;53.584;9.968;2022-09-13T12:54:59;1.83;;;1.73;;
938;SDS011;456;53.584;9.968;2022-09-13T13:00:19;2.23;;;1.80;;
938;SDS011;456;53.584;9.968;2022-09-13T13:02:52;2.50;;;1.23;;
938;SDS011;456;53.584;9.968;2022-09-13T13:05:48;2.07;;;1.60;;
938;SDS011;456;53.584;9.968;2022-09-13T13:11:07;2.20;;;1.70;;
938;SDS011;456;53.584;9.968;2022-09-13T13:13:39;1.97;;;1.50;;
938;SDS011;456;53.584;9.968;2022-09-13T13:18:47;2.70;;;1.77;;
938;SDS011;456;53.584;9.968;2022-09-13T13:21:29;1.70;;;1.60;;
938;SDS011;456;53.584;9.968;2022-09-13T13:26:46;1.97;;;1.40;;
938;SDS011;456;53.584;9.968;2022-09-13T13:29:18;2.20;;;1.47;;
938;SDS011;456;53.584;9.968;2022-09-13T13:36:52;2.90;;;1.63;;
938;SDS011;456;53.584;9.968;2022-09-13T13:41:52;6.70;;;1.77;;
938;SDS011;456;53.584;9.968;2022-09-13T13:46:49;1.67;;;1.20;;
938;SDS011;456;53.584;9.968;2022-09-13T14:22:19;1.70;;;1.60;;
938;SDS011;456;53.584;9.968;2022-09-13T14:24:46;1.60;;;1.30;;
938;SDS011;456;53.584;9.968;2022-09-13T14:27:19;1.90;;;1.30;;
938;SDS011;456;53.584;9.968;2022-09-13T14:29:59;1.47;;;1.30;;
938;SDS011;456;53.584;9.968;2022-09-13T14:32:41;2.50;;;1.50;;
938;SDS011;456;53.584;9.968;2022-09-13T14:40:48;2.20;;;1.37;;
938;SDS011;456;53.584;9.968;2022-09-13T14:43:18;2.90;;;1.83;;
938;SDS011;456;53.584;9.968;2022-09-13T14:45:47;1.60;;;1.50;;
938;SDS011;456;53.584;9.968;2022-09-13T14:48:21;1.20;;;1.10;;
938;SDS011;456;53.584;9.968;2022-09-13T14:51:02;1.37;;;1.20;;
938;SDS011;456;53.584;9.968;2022-09-13T14:53:36;2.17;;;1.17;;
938;SDS011;456;53.584;9.968;2022-09-13T14:56:07;1.37;;;1.27;;
938;SDS011;456;53.584;9.968;2022-09-13T14:58:57;1.77;;;1.20;;
938;SDS011;456;53.584;9.968;2022-09-13T15:01:29;2.23;;;1.30;;
938;SDS011;456;53.584;9.968;2022-09-13T15:03:58;1.53;;;1.27;;
938;SDS011;456;53.584;9.968;2022-09-13T15:06:26;2.43;;;1.40;;
938;SDS011;456;53.584;9.968;2022-09-13T15:09:00;1.60;;;1.23;;
938;SDS011;456;53.584;9.968;2022-09-13T15:11:58;1.60;;;1.23;;
938;SDS011;456;53.584;9.968;2022-09-13T15:17:11;1.43;;;1.33;;
938;SDS011;456;53.584;9.968;2022-09-13T15:19:46;1.33;;;1.20;;
938;SDS011;456;53.584;9.968;2022-09-13T15:22:24;1.50;;;1.40;;
938;SDS011;456;53.584;9.968;2022-09-13T15:24:54;1.33;;;1.13;;
938;SDS011;456;53.584;9.968;2022-09-13T15:27:24;2.10;;;1.47;;
938;SDS011;456;53.584;9.968;2022-09-13T15:29:55;1.40;;;1.30;;
938;SDS011;456;53.584;9.968;2022-09-13T15:32:30;2.83;;;1.30;;
938;SDS011;456;53.584;9.968;2022-09-13T15:34:57;2.17;;;1.50;;
938;SDS011;456;53.584;9.968;2022-09-13T15:37:28;1.53;;;1.40;;
938;SDS011;456;53.584;9.968;2022-09-13T15:42:46;2.33;;;1.43;;
938;SDS011;456;53.584;9.968;2022-09-13T15:45:13;1.37;;;1.10;;
938;SDS011;456;53.584;9.968;2022-09-13T15:47:39;1.47;;;1.10;;
938;SDS011;456;53.584;9.968;2022-09-13T15:50:04;2.00;;;1.50;;
938;SDS011;456;53.584;9.968;2022-09-13T15:52:31;1.93;;;1.20;;
938;SDS011;456;53.584;9.968;2022-09-13T15:54:57;3.90;;;1.10;;
938;SDS011;456;53.584;9.968;2022-09-13T15:57:23;1.30;;;1.20;;
938;SDS011;456;53.584;9.968;2022-09-13T15:59:51;1.97;;;1.30;;
938;SDS011;456;53.584;9.968;2022-09-13T16:02:22;1.30;;;1.20;;
938;SDS011;456;53.584;9.968;2022-09-13T16:04:53;2.00;;;1.40;;
938;SDS011;456;53.584;9.968;2022-09-13T16:07:19;1.53;;;1.20;;
938;SDS011;456;53.584;9.968;2022-09-13T16:09:46;1.20;;;1.10;;
938;SDS011;456;53.584;9.968;2022-09-13T16:12:12;1.27;;;1.10;;
938;SDS011;456;53.584;9.968;2022-09-13T16:14:38;1.73;;;1.10;;
938;SDS011;456;53.584;9.968;2022-09-13T16:17:05;1.30;;;1.10;;
938;SDS011;456;53.584;9.968;2022-09-13T16:19:34;1.77;;;1.40;;
938;SDS011;456;53.584;9.968;2022-09-13T16:22:00;1.47;;;1.27;;
938;SDS011;456;53.584;9.968;2022-09-13T16:24:26;2.10;;;1.23;;
938;SDS011;456;53.584;9.968;2022-09-13T16:26:52;2.87;;;1.30;;
938;SDS011;456;53.584;9.968;2022-09-13T16:29:18;1.20;;;1.10;;
938;SDS011;456;53.584;9.968;2022-09-13T16:31:43;1.90;;;1.10;;
938;SDS011;456;53.584;9.968;2022-09-13T16:34:09;1.30;;;1.20;;
938;SDS011;456;53.584;9.968;2022-09-13T16:36:35;1.50;;;1.40;;
938;SDS011;456;53.584;9.968;2022-09-13T16:39:00;1.70;;;1.30;;
938;SDS011;456;53.584;9.968;2022-09-13T16:41:26;1.50;;;1.30;;
938;SDS011;456;53.584;9.968;2022-09-13T16:43:54;1.93;;;1.17;;
938;SDS011;456;53.584;9.968;2022-09-13T16:46:21;2.20;;;1.30;;
938;SDS011;456;53.584;9.968;2022-09-13T16:48:53;1.50;;;1.40;;
938;SDS011;456;53.584;9.968;2022-09-13T16:51:20;2.57;;;1.60;;
938;SDS011;456;53.584;9.968;2022-09-13T16:53:47;2.10;;;1.30;;
938;SDS011;456;53.584;9.968;2022-09-13T16:56:15;3.13;;;1.53;;
938;SDS011;456;53.584;9.968;2022-09-13T16:58:43;2.93;;;1.80;;
938;SDS011;456;53.584;9.968;2022-09-13T17:01:14;1.33;;;1.20;;
938;SDS011;456;53.584;9.968;2022-09-13T17:03:42;2.33;;;1.50;;
938;SDS011;456;53.584;9.968;2022-09-13T17:06:09;1.80;;;1.53;;
938;SDS011;456;53.584;9.968;2022-09-13T17:08:38;1.40;;;1.10;;
938;SDS011;456;53.584;9.968;2022-09-13T17:11:06;2.60;;;1.60;;
938;SDS011;456;53.584;9.968;2022-09-13T17:13:34;1.70;;;1.43;;
938;SDS011;456;53.584;9.968;2022-09-13T17:16:01;2.23;;;1.30;;
938;SDS011;456;53.584;9.968;2022-09-13T17:18:27;1.83;;;1.20;;
938;SDS011;456;53.584;9.968;2022-09-13T17:20:52;3.10;;;1.50;;
938;SDS011;456;53.584;9.968;2022-09-13T17:23:18;2.30;;;1.63;;
938;SDS011;456;53.584;9.968;2022-09-13T17:25:45;3.03;;;1.47;;
938;SDS011;456;53.584;9.968;2022-09-13T17:28:13;3.73;;;1.37;;
938;SDS011;456;53.584;9.968;2022-09-13T17:30:42;1.70;;;1.60;;
938;SDS011;456;53.584;9.968;2022-09-13T17:33:09;3.53;;;1.30;;
938;SDS011;456;53.584;9.968;2022-09-13T17:35:34;1.80;;;1.30;;
938;SDS011;456;53.584;9.968;2022-09-13T17:38:00;2.20;;;1.33;;
938;SDS011;456;53.584;9.968;2022-09-13T17:40:27;2.03;;;1.50;;
938;SDS011;456;53.584;9.968;2022-09-13T17:42:53;2.30;;;1.43;;
938;SDS011;456;53.584;9.968;2022-09-13T17:45:19;2.03;;;1.20;;
938;SDS011;456;53.584;9.968;2022-09-13T17:47:46;2.43;;;1.37;;
938;SDS011;456;53.584;9.968;2022-09-13T17:50:12;4.43;;;1.60;;
938;SDS011;456;53.584;9.968;2022-09-13T17:52:38;2.50;;;1.23;;
938;SDS011;456;53.584;9.968;2022-09-13T17:55:04;2.33;;;1.60;;
938;SDS011;456;53.584;9.968;2022-09-13T17:57:31;2.80;;;1.37;;
938;SDS011;456;53.584;9.968;2022-09-13T17:59:56;3.77;;;1.40;;
938;SDS011;456;53.584;9.968;2022-09-13T18:02:22;1.77;;;1.40;;
938;SDS011;456;53.584;9.968;2022-09-13T18:04:48;2.60;;;1.43;;
938;SDS011;456;53.584;9.968;2022-09-13T18:07:14;2.00;;;1.37;;
938;SDS011;456;53.584;9.968;2022-09-13T18:09:40;6.67;;;1.70;;
938;SDS011;456;53.584;9.968;2022-09-13T18:12:07;2.13;;;1.13;;
938;SDS011;456;53.584;9.968;2022-09-13T18:14:32;4.20;;;1.57;;
938;SDS011;456;53.584;9.968;2022-09-13T18:16:58;2.50;;;1.67;;
938;SDS011;456;53.584;9.968;2022-09-13T18:19:24;3.33;;;1.67;;
938;SDS011;456;53.584;9.968;2022-09-13T18:21:49;2.17;;;1.20;;
938;SDS011;456;53.584;9.968;2022-09-13T18:24:15;2.03;;;1.40;;
938;SDS011;456;53.584;9.968;2022-09-13T18:26:41;2.13;;;1.20;;
938;SDS011;456;53.584;9.968;2022-09-13T18:29:10;4.07;;;1.67;;
938;SDS011;456;53.584;9.968;2022-09-13T18:31:38;2.93;;;1.47;;
938;SDS011;456;53.584;9.968;2022-09-13T18:34:06;3.83;;;1.57;;
938;SDS011;456;53.584;9.968;2022-09-13T18:36:34;3.20;;;1.60;;
938;SDS011;456;53.584;9.968;2022-09-13T18:39:01;5.20;;;1.40;;
938;SDS011;456;53.584;9.968;2022-09-13T18:41:38;2.40;;;1.50;;
938;SDS011;456;53.584;9.968;2022-09-13T18:44:04;3.27;;;1.37;;
938;SDS011;456;53.584;9.968;2022-09-13T18:46:31;2.40;;;1.53;;
938;SDS011;456;53.584;9.968;2022-09-13T18:48:58;1.80;;;1.30;;
938;SDS011;456;53.584;9.968;2022-09-13T18:51:28;1.87;;;1.50;;
938;SDS011;456;53.584;9.968;2022-09-13T18:53:56;2.00;;;1.53;;
938;SDS011;456;53.584;9.968;2022-09-13T18:56:22;4.60;;;2.00;;
938;SDS011;456;53.584;9.968;2022-09-13T18:58:49;6.70;;;1.83;;
938;SDS011;456;53.584;9.968;2022-09-13T19:01:21;2.67;;;1.50;;
938;SDS011;456;53.584;9.968;2022-09-13T19:06:30;3.50;;;1.50;;
938;SDS011;456;53.584;9.968;2022-09-13T19:08:58;3.57;;;1.77;;
938;SDS011;456;53.584;9.968;2022-09-13T19:11:25;3.23;;;2.00;;
938;SDS011;456;53.584;9.968;2022-09-13T19:13:52;4.30;;;1.70;;
938;SDS011;456;53.584;9.968;2022-09-13T19:16:18;6.30;;;1.80;;
938;SDS011;456;53.584;9.968;2022-09-13T19:18:45;1.90;;;1.53;;
938;SDS011;456;53.584;9.968;2022-09-13T19:21:15;2.40;;;1.80;;
938;SDS011;456;53.584;9.968;2022-09-13T19:23:43;3.57;;;1.30;;
938;SDS011;456;53.584;9.968;2022-09-13T19:28:36;1.83;;;1.17;;
938;SDS011;456;53.584;9.968;2022-09-13T19:31:05;3.07;;;1.80;;
938;SDS011;456;53.584;9.968;2022-09-13T19:33:32;1.20;;;1.10;;
938;SDS011;456;53.584;9.968;2022-09-13T19:36:01;4.93;;;1.60;;
938;SDS011;456;53.584;9.968;2022-09-13T19:38:29;2.30;;;1.30;;
938;SDS011;456;53.584;9.968;2022-09-13T19:40:56;3.17;;;1.80;;
938;SDS011;456;53.584;9.968;2022-09-13T19:43:23;4.70;;;1.90;;
938;SDS011;456;53.584;9.968;2022-09-13T19:45:55;1.63;;;1.53;;